createdAt,value
2023-03-31T00:01:45.072Z,15.40
2023-03-31T00:06:48.475Z,17.50
2023-03-31T00:11:52.505Z,15.60
2023-03-31T00:17:06.337Z,15.00
2023-03-31T00:22:09.745Z,15.60
2023-03-31T00:27:13.526Z,16.20
2023-03-31T00:32:16.794Z,16.90
2023-03-31T00:37:20.462Z,17.90
2023-03-31T00:42:24.234Z,15.50
2023-03-31T00:47:30.246Z,16.80
2023-03-31T00:52:37.572Z,14.50
2023-03-31T00:57:42.372Z,14.40
2023-03-31T01:02:53.278Z,15.90
2023-03-31T01:07:59.906Z,14.20
2023-03-31T01:13:04.722Z,16.40
2023-03-31T01:18:10.990Z,14.80
2023-03-31T01:23:39.031Z,14.10
2023-03-31T01:28:48.422Z,12.80
2023-03-31T01:34:56.999Z,14.20
2023-03-31T01:40:09.792Z,12.60
2023-03-31T01:45:23.492Z,12.10
2023-03-31T01:50:34.808Z,11.90
2023-03-31T01:55:44.157Z,12.90
2023-03-31T02:01:10.973Z,11.00
2023-03-31T02:06:22.569Z,16.20
2023-03-31T02:11:28.877Z,10.20
2023-03-31T02:16:37.873Z,10.50
2023-03-31T02:21:41.963Z,11.40
2023-03-31T02:27:13.319Z,10.70
2023-03-31T02:32:22.900Z,12.10
2023-03-31T02:37:27.538Z,10.50
2023-03-31T02:42:33.994Z,11.70
2023-03-31T02:47:39.736Z,9.80
2023-03-31T02:53:24.516Z,9.70
2023-03-31T02:58:39.709Z,10.30
2023-03-31T03:04:23.295Z,12.70
2023-03-31T03:10:23.115Z,10.70
2023-03-31T03:15:54.108Z,12.60
2023-03-31T03:20:57.705Z,11.20
2023-03-31T03:26:01.275Z,11.30
2023-03-31T03:31:09.515Z,12.70
2023-03-31T03:36:31.142Z,11.00
2023-03-31T03:41:35.543Z,11.70
2023-03-31T03:46:42.224Z,12.10
2023-03-31T03:51:45.751Z,12.80
2023-03-31T03:56:51.778Z,13.10
2023-03-31T04:01:58.126Z,15.50
2023-03-31T04:07:01.588Z,12.70
2023-03-31T04:12:15.362Z,11.60
2023-03-31T04:17:18.982Z,12.10
2023-03-31T04:22:22.377Z,14.10
2023-03-31T04:27:35.177Z,13.70
2023-03-31T04:32:38.691Z,13.10
2023-03-31T04:37:42.280Z,13.90
2023-03-31T04:42:48.945Z,12.70
2023-03-31T04:48:13.405Z,15.30
2023-03-31T04:53:16.716Z,13.40
2023-03-31T04:58:20.469Z,14.00
2023-03-31T05:03:44.712Z,13.40
2023-03-31T05:08:48.128Z,14.30
2023-03-31T05:14:01.879Z,16.30
2023-03-31T05:19:05.917Z,17.80
2023-03-31T05:24:09.752Z,18.00
2023-03-31T05:29:13.344Z,18.40
2023-03-31T05:34:17.099Z,16.90
2023-03-31T05:39:21.438Z,17.80
2023-03-31T05:44:45.382Z,16.60
2023-03-31T05:50:01.226Z,17.40
2023-03-31T05:55:08.418Z,16.20
2023-03-31T06:00:32.831Z,16.00
2023-03-31T06:05:36.407Z,17.60
2023-03-31T06:10:40.808Z,17.90
2023-03-31T06:15:44.378Z,16.80
2023-03-31T06:20:47.826Z,15.30
2023-03-31T06:25:52.214Z,18.00
2023-03-31T06:31:04.936Z,13.90
2023-03-31T06:36:28.856Z,16.70
2023-03-31T06:41:32.317Z,17.10
2023-03-31T06:46:36.469Z,19.10
2023-03-31T06:51:42.516Z,18.00
2023-03-31T06:56:45.954Z,19.70
2023-03-31T07:01:50.803Z,19.00
2023-03-31T07:06:54.311Z,21.60
2023-03-31T07:11:57.628Z,22.20
2023-03-31T07:17:01.054Z,20.10
2023-03-31T07:22:07.461Z,21.60
2023-03-31T07:27:10.879Z,25.30
2023-03-31T07:32:14.466Z,24.30
2023-03-31T07:37:25.991Z,22.80
2023-03-31T07:42:29.362Z,20.90
2023-03-31T07:47:40.163Z,22.00
2023-03-31T07:52:47.573Z,19.30
2023-03-31T07:57:53.602Z,18.40
2023-03-31T08:02:57.234Z,16.60
2023-03-31T08:08:00.812Z,19.00
2023-03-31T08:13:04.241Z,19.00
2023-03-31T08:18:08.385Z,16.10
2023-03-31T08:23:12.312Z,16.30
2023-03-31T08:28:15.632Z,12.60
2023-03-31T08:33:19.023Z,14.90
2023-03-31T08:38:22.253Z,15.30
2023-03-31T08:43:32.861Z,14.90
2023-03-31T08:48:45.520Z,14.30
2023-03-31T08:59:02.458Z,11.80
2023-03-31T09:04:21.528Z,13.50
2023-03-31T09:10:03.566Z,12.20
2023-03-31T09:15:14.668Z,12.00
2023-03-31T09:20:33.212Z,12.10
2023-03-31T09:25:39.189Z,12.40
2023-03-31T09:30:43.259Z,12.10
2023-03-31T09:35:47.267Z,11.70
2023-03-31T09:40:51.145Z,9.80
2023-03-31T09:46:08.727Z,10.40
2023-03-31T09:51:22.686Z,10.30
2023-03-31T09:56:35.092Z,9.30
2023-03-31T10:01:38.525Z,11.30
2023-03-31T10:06:43.075Z,8.60
2023-03-31T10:11:59.539Z,9.80
2023-03-31T10:17:06.995Z,9.90
2023-03-31T10:22:17.219Z,9.20
2023-03-31T10:27:26.898Z,8.10
2023-03-31T10:32:32.991Z,12.50
2023-03-31T10:37:37.821Z,8.60
2023-03-31T10:42:44.313Z,9.20
2023-03-31T10:47:50.152Z,10.10
2023-03-31T10:53:05.690Z,9.30
2023-03-31T10:58:40.110Z,8.90
2023-03-31T11:03:57.172Z,9.30
2023-03-31T11:09:32.433Z,8.50
2023-03-31T11:15:04.259Z,6.80
2023-03-31T11:20:42.396Z,9.50
2023-03-31T11:25:45.836Z,6.50
2023-03-31T11:31:14.510Z,9.20
2023-03-31T11:36:28.794Z,8.30
2023-03-31T11:41:40.006Z,11.00
2023-03-31T11:47:10.084Z,10.30
2023-03-31T11:52:19.595Z,8.30
2023-03-31T11:58:04.943Z,8.40
2023-03-31T12:03:37.814Z,8.70
2023-03-31T12:08:53.726Z,9.10
2023-03-31T12:14:22.192Z,7.50
2023-03-31T12:19:41.049Z,8.90
2023-03-31T12:24:44.535Z,10.70
2023-03-31T12:30:07.970Z,7.70
2023-03-31T12:35:22.259Z,10.80
2023-03-31T12:40:25.667Z,7.70
2023-03-31T12:45:31.533Z,7.50
2023-03-31T12:51:03.220Z,7.80
2023-03-31T12:56:07.114Z,9.10
2023-03-31T13:01:24.454Z,9.10
2023-03-31T13:06:27.866Z,7.80
2023-03-31T13:11:34.378Z,5.80
2023-03-31T13:16:37.791Z,7.50
2023-03-31T13:22:07.920Z,4.80
2023-03-31T13:27:48.555Z,6.20
2023-03-31T13:33:19.615Z,5.30
2023-03-31T13:38:37.852Z,6.50
2023-03-31T13:44:11.078Z,6.90
2023-03-31T13:49:36.689Z,4.90
2023-03-31T13:54:54.800Z,6.80
2023-03-31T14:00:17.253Z,6.80
2023-03-31T14:06:02.667Z,6.00
2023-03-31T14:11:24.989Z,5.30
2023-03-31T14:16:31.755Z,7.30
2023-03-31T14:21:47.209Z,6.50
2023-03-31T14:26:53.736Z,9.40
2023-03-31T14:32:24.819Z,6.20
2023-03-31T14:37:28.308Z,9.40
2023-03-31T14:42:40.324Z,5.10
2023-03-31T14:47:53.258Z,6.20
2023-03-31T14:52:57.124Z,4.10
2023-03-31T14:58:32.590Z,6.30
2023-03-31T15:03:41.788Z,6.10
2023-03-31T15:08:46.305Z,6.00
2023-03-31T15:14:04.178Z,6.00
2023-03-31T15:19:23.528Z,6.50
2023-03-31T15:24:26.814Z,4.70
2023-03-31T15:29:41.668Z,5.10
2023-03-31T15:34:47.982Z,2.90
2023-03-31T15:39:59.879Z,2.30
2023-03-31T15:45:16.016Z,3.30
2023-03-31T15:50:23.722Z,4.70
2023-03-31T15:55:33.376Z,8.50
2023-03-31T16:00:53.373Z,5.20
2023-03-31T16:06:04.558Z,3.70
2023-03-31T16:11:23.229Z,6.10
2023-03-31T16:16:28.831Z,9.90
2023-03-31T16:21:40.898Z,3.80
2023-03-31T16:26:44.662Z,5.30
2023-03-31T16:31:48.597Z,6.40
2023-03-31T16:36:52.332Z,8.10
2023-03-31T16:41:55.876Z,8.20
2023-03-31T16:47:02.091Z,5.50
2023-03-31T16:52:06.721Z,6.30
2023-03-31T16:57:10.336Z,7.10
2023-03-31T17:02:14.033Z,8.50
2023-03-31T17:07:17.531Z,10.10
2023-03-31T17:12:20.942Z,10.10
2023-03-31T17:17:24.369Z,12.70
2023-03-31T17:22:27.983Z,17.60
2023-03-31T17:27:32.373Z,9.80
2023-03-31T17:32:46.576Z,10.60
2023-03-31T17:37:53.779Z,10.40
2023-03-31T17:42:57.412Z,8.50
2023-03-31T17:48:01.245Z,9.80
2023-03-31T17:53:09.193Z,9.90
2023-03-31T17:58:13.809Z,12.00
2023-03-31T18:03:17.796Z,11.20
2023-03-31T18:08:21.357Z,13.50
2023-03-31T18:13:25.337Z,11.80
2023-03-31T18:18:29.198Z,12.60
2023-03-31T18:23:32.522Z,17.70
2023-03-31T18:28:36.307Z,21.00
2023-03-31T18:33:40.363Z,22.80
2023-03-31T18:38:45.402Z,24.20
2023-03-31T18:43:59.245Z,21.60
2023-03-31T18:49:05.985Z,26.20
2023-03-31T18:54:10.011Z,18.20
2023-03-31T18:59:13.486Z,16.90
2023-03-31T19:04:38.247Z,21.50
2023-03-31T19:10:02.575Z,20.80
2023-03-31T19:15:07.233Z,19.80
2023-03-31T19:20:17.842Z,23.10
2023-03-31T19:25:21.728Z,19.70
2023-03-31T19:30:37.326Z,19.50
2023-03-31T19:35:45.642Z,23.00
2023-03-31T19:40:50.091Z,23.50
2023-03-31T19:45:57.701Z,34.50
2023-03-31T19:51:04.868Z,102.70
2023-03-31T19:56:12.037Z,42.90
2023-03-31T20:01:18.986Z,36.10
2023-03-31T20:06:35.776Z,29.40
2023-03-31T20:11:43.560Z,28.10
2023-03-31T20:16:48.170Z,25.30
2023-03-31T20:21:57.868Z,24.20
2023-03-31T20:27:01.711Z,24.60
2023-03-31T20:32:05.915Z,26.80
2023-03-31T20:37:09.262Z,23.90
2023-03-31T20:42:32.832Z,25.00
2023-03-31T20:47:36.205Z,22.00
2023-03-31T20:52:39.819Z,48.60
2023-03-31T20:57:43.271Z,22.60
2023-03-31T21:02:46.669Z,20.30
2023-03-31T21:07:50.422Z,21.40
2023-03-31T21:12:54.493Z,24.10
2023-03-31T21:17:57.861Z,24.60
2023-03-31T21:23:01.534Z,23.20
2023-03-31T21:28:04.901Z,22.00
2023-03-31T21:33:11.447Z,23.80
2023-03-31T21:38:16.876Z,23.00
2023-03-31T21:43:20.525Z,20.60
2023-03-31T21:48:26.472Z,22.90
2023-03-31T21:53:31.825Z,18.90
2023-03-31T21:58:35.897Z,20.10
2023-03-31T22:03:41.194Z,15.40
2023-03-31T22:08:44.718Z,15.10
2023-03-31T22:13:50.701Z,17.30
2023-03-31T22:18:55.305Z,13.50
2023-03-31T22:24:03.529Z,14.70
2023-03-31T22:29:07.006Z,15.70
2023-03-31T22:34:10.567Z,13.40
2023-03-31T22:39:15.210Z,13.80
2023-03-31T22:44:18.783Z,13.30
2023-03-31T22:49:25.491Z,14.60
2023-03-31T22:54:28.980Z,13.10
2023-03-31T22:59:32.957Z,15.20
2023-03-31T23:04:36.762Z,16.70
2023-03-31T23:09:40.085Z,16.10
2023-03-31T23:14:43.576Z,17.10
2023-03-31T23:19:57.514Z,16.10
2023-03-31T23:25:01.948Z,15.20
2023-03-31T23:30:06.553Z,19.90
2023-03-31T23:35:11.877Z,19.90
2023-03-31T23:40:24.302Z,13.50
2023-03-31T23:45:27.785Z,14.20
2023-03-31T23:50:31.693Z,15.90
2023-03-31T23:55:38.785Z,16.90
